»·PEaware :: UAL1963 KIAH-KDEN

UAL1963 :: KIAH-KDEN

FLIGHT INFORMATION

Flight Status: Arrived
Operator:
United Airlines
More flights by this operator :: More flights under this callsign
Pilot: Drew L. (13237)
Aircraft: BOEING 737-800
(B738)
More flights by this aircraft type
Origin: KIAH G Bush Intercontinental/Houst
United States
Destination: KDEN Denver Intl
United States
More flights between these airports :: More routes between these airports
Route: +STYCK4 DOLEY FUZ LBL HALEN ZPLYN3
File this flight plan on PilotEdge
Remarks:
Altitude:
(Current/Filed)
36,000ft
Speed:
(Current/Filed)
400kts
Departed: 29-Jan-17 06:32 PM
Arrived: 29-Jan-17 08:48 PM
Distance/Time
Traveled:
749nm/2:16
Distance/Time
To Go:
Arrived

Flight Plot

Page will automatically refresh every two minutes.


Map Options




Map Legend


Flown Route
Filed Route
Departure Airport
Arrival Airport
Navaid (VOR, NDB)
Fix

Horizontal Profiles

Position Reports

Time Latitude Longitude Heading Altitude Ground
Speed
29-Jan-17 18:01 29.988692 -95.337635 269 104ft 0kts
29-Jan-17 18:02 29.988692 -95.337635 269 104ft 0kts
29-Jan-17 18:03 29.988692 -95.337635 269 104ft 0kts
29-Jan-17 18:04 29.988692 -95.337635 269 104ft 0kts
29-Jan-17 18:05 29.988692 -95.337635 269 104ft 0kts
29-Jan-17 18:06 29.988692 -95.337635 269 104ft 0kts
29-Jan-17 18:07 29.988692 -95.337635 269 104ft 0kts
29-Jan-17 18:08 29.988692 -95.337635 269 104ft 0kts
29-Jan-17 18:09 29.988692 -95.337635 269 104ft 0kts
29-Jan-17 18:10 29.988692 -95.337635 269 104ft 0kts
29-Jan-17 18:11 29.988692 -95.337635 269 104ft 0kts
29-Jan-17 18:12 29.988692 -95.337635 269 105ft 0kts
29-Jan-17 18:13 29.988692 -95.337635 269 105ft 0kts
29-Jan-17 18:14 29.988692 -95.337635 269 105ft 0kts
29-Jan-17 18:15 29.988692 -95.337635 269 105ft 0kts
29-Jan-17 18:16 29.988692 -95.337635 269 105ft 0kts
29-Jan-17 18:17 29.988692 -95.337635 269 105ft 0kts
29-Jan-17 18:18 29.988692 -95.337635 269 105ft 0kts
29-Jan-17 18:19 29.988692 -95.337635 269 105ft 0kts
29-Jan-17 18:20 29.988692 -95.337635 269 105ft 0kts
29-Jan-17 18:21 29.988692 -95.337632 269 105ft 0kts
29-Jan-17 18:22 29.988693 -95.337566 269 105ft 0kts
29-Jan-17 18:23 29.988699 -95.336972 268 105ft 0kts
29-Jan-17 18:24 29.988699 -95.336972 268 105ft 0kts
29-Jan-17 18:25 29.988699 -95.336972 268 105ft 0kts
29-Jan-17 18:26 29.990875 -95.336616 18 105ft 13kts
29-Jan-17 18:27 29.993336 -95.339434 262 105ft 9kts
29-Jan-17 18:28 29.991834 -95.346462 274 105ft 29kts
29-Jan-17 18:29 29.991639 -95.354336 268 105ft 11kts
29-Jan-17 18:30 29.987449 -95.355898 238 105ft 10kts
29-Jan-17 18:31 29.985757 -95.356567 159 105ft 12kts
29-Jan-17 18:32 29.958873 -95.340075 152 651ft 193kts
29-Jan-17 18:33 29.916533 -95.323787 214 4011ft 153kts
29-Jan-17 18:34 29.891320 -95.374795 260 5969ft 222kts
29-Jan-17 18:35 29.933121 -95.423184 337 8971ft 259kts
29-Jan-17 18:36 30.005158 -95.450626 338 11974ft 298kts
29-Jan-17 18:37 30.093020 -95.483839 337 14026ft 355kts
29-Jan-17 18:38 30.189122 -95.520253 334 16999ft 371kts
29-Jan-17 18:39 30.289771 -95.558202 333 19812ft 388kts
29-Jan-17 18:40 30.393013 -95.597559 330 22275ft 396kts
29-Jan-17 18:41 30.498635 -95.637747 329 24315ft 405kts
29-Jan-17 18:42 30.602362 -95.686169 321 26093ft 401kts
29-Jan-17 18:43 30.703056 -95.741395 320 28147ft 395kts
29-Jan-17 18:44 30.802356 -95.794782 319 29847ft 393kts
29-Jan-17 18:45 30.900069 -95.847079 319 31570ft 387kts
29-Jan-17 18:46 30.996998 -95.899326 319 33009ft 380kts
29-Jan-17 18:47 31.092214 -95.950835 318 34255ft 373kts
29-Jan-17 18:48 31.191827 -95.995205 326 35093ft 390kts
29-Jan-17 18:49 31.291194 -96.039533 317 35955ft 370kts
29-Jan-17 18:50 31.379938 -96.101107 317 36330ft 378kts
29-Jan-17 18:51 31.472412 -96.165788 317 36333ft 398kts
29-Jan-17 18:52 31.552775 -96.222373 318 36332ft 411kts
29-Jan-17 18:53 31.664425 -96.308347 305 36969ft 380kts
29-Jan-17 18:54 31.761733 -96.375350 321 36392ft 417kts
29-Jan-17 18:55 31.863372 -96.443101 319 36323ft 420kts
29-Jan-17 18:56 31.963206 -96.513135 318 36318ft 415kts
29-Jan-17 18:57 32.062660 -96.583690 319 36323ft 421kts
29-Jan-17 18:58 32.163751 -96.655776 319 36323ft 427kts
29-Jan-17 18:59 32.265344 -96.728593 320 36330ft 428kts
29-Jan-17 19:00 32.366894 -96.801523 320 36316ft 427kts
29-Jan-17 19:01 32.467932 -96.874053 320 36309ft 420kts
29-Jan-17 19:02 32.568606 -96.946885 321 36311ft 427kts
29-Jan-17 19:03 32.670240 -97.020226 322 36313ft 428kts
29-Jan-17 19:04 32.771594 -97.093302 321 36317ft 429kts
29-Jan-17 19:05 32.855882 -97.154986 322 36305ft 427kts
29-Jan-17 19:06 32.953805 -97.233566 317 36294ft 424kts
29-Jan-17 19:07 33.049481 -97.316857 319 36296ft 428kts
29-Jan-17 19:08 33.146149 -97.400327 319 36297ft 430kts
29-Jan-17 19:09 33.242613 -97.483745 319 36303ft 426kts
29-Jan-17 19:10 33.338175 -97.566109 319 36296ft 425kts
29-Jan-17 19:11 33.434185 -97.649483 320 36308ft 428kts
29-Jan-17 19:12 33.546828 -97.747763 320 36307ft 431kts
29-Jan-17 19:13 33.627509 -97.818474 320 36301ft 429kts
29-Jan-17 19:14 33.723594 -97.902446 320 36291ft 426kts
29-Jan-17 19:15 33.820156 -97.987130 322 36309ft 434kts
29-Jan-17 19:16 33.917266 -98.072885 321 36307ft 429kts
29-Jan-17 19:17 34.014309 -98.158143 320 36292ft 434kts
29-Jan-17 19:18 34.111021 -98.243851 321 36295ft 431kts
29-Jan-17 19:19 34.206954 -98.329416 321 36293ft 429kts
29-Jan-17 19:20 34.302948 -98.415157 321 36282ft 428kts
29-Jan-17 19:21 34.399175 -98.500709 322 36284ft 427kts
29-Jan-17 19:22 34.494348 -98.586128 322 36285ft 425kts
29-Jan-17 19:23 34.590016 -98.672085 322 36274ft 430kts
29-Jan-17 19:24 34.685303 -98.757954 323 36275ft 425kts
29-Jan-17 19:25 34.780882 -98.844588 323 36271ft 429kts
29-Jan-17 19:26 34.875787 -98.930572 324 36289ft 424kts
29-Jan-17 19:27 34.970206 -99.016571 323 36291ft 425kts
29-Jan-17 19:28 35.064326 -99.102762 323 36288ft 418kts
29-Jan-17 19:29 35.156579 -99.187039 324 36287ft 415kts
29-Jan-17 19:30 35.249070 -99.271886 324 36277ft 411kts
29-Jan-17 19:31 35.340790 -99.356245 324 36275ft 413kts
29-Jan-17 19:32 35.431527 -99.440025 324 36270ft 406kts
29-Jan-17 19:33 35.521659 -99.523498 325 36270ft 406kts
29-Jan-17 19:34 35.611544 -99.606962 325 36271ft 405kts
29-Jan-17 19:35 35.701340 -99.690581 325 36271ft 403kts
29-Jan-17 19:36 35.790732 -99.774061 326 36272ft 404kts
29-Jan-17 19:37 35.879964 -99.857612 326 36276ft 403kts
29-Jan-17 19:38 35.969061 -99.941308 326 36274ft 402kts
29-Jan-17 19:39 36.058383 -100.025452 326 36274ft 403kts
29-Jan-17 19:40 36.147414 -100.109539 326 36274ft 403kts
29-Jan-17 19:41 36.236221 -100.193701 326 36274ft 403kts
29-Jan-17 19:42 36.325010 -100.278084 326 36276ft 401kts
29-Jan-17 19:43 36.413583 -100.362533 326 36277ft 402kts
29-Jan-17 19:44 36.502155 -100.447213 326 36281ft 400kts
29-Jan-17 19:45 36.590415 -100.531830 326 36281ft 401kts
29-Jan-17 19:46 36.678350 -100.616408 326 36281ft 400kts
29-Jan-17 19:47 36.766372 -100.701314 326 36283ft 400kts
29-Jan-17 19:48 36.854034 -100.785870 326 36287ft 398kts
29-Jan-17 19:49 36.941763 -100.871094 326 36289ft 398kts
29-Jan-17 19:50 37.028909 -100.956298 324 36289ft 398kts
29-Jan-17 19:51 37.104938 -101.059423 316 36290ft 405kts
29-Jan-17 19:52 37.178433 -101.166575 316 36294ft 405kts
29-Jan-17 19:53 37.251675 -101.273793 316 36298ft 405kts
29-Jan-17 19:54 37.325347 -101.381461 316 36298ft 405kts
29-Jan-17 19:55 37.374218 -101.453131 316 36297ft 405kts
29-Jan-17 19:56 37.447398 -101.560934 316 36296ft 405kts
29-Jan-17 19:57 37.520268 -101.668705 316 36296ft 405kts
29-Jan-17 19:58 37.593296 -101.777083 316 36300ft 404kts
29-Jan-17 19:59 37.665994 -101.884960 316 36304ft 404kts
29-Jan-17 20:00 37.738427 -101.993291 316 36304ft 404kts
29-Jan-17 20:01 37.810757 -102.101945 316 36304ft 404kts
29-Jan-17 20:02 37.885643 -102.207064 319 36306ft 401kts
29-Jan-17 20:03 37.962261 -102.310486 318 36307ft 402kts
29-Jan-17 20:04 38.038831 -102.413906 319 36308ft 402kts
29-Jan-17 20:05 38.115935 -102.515966 331 36304ft 392kts
29-Jan-17 20:06 38.208465 -102.485367 57 36309ft 414kts
29-Jan-17 20:07 38.177718 -102.340969 136 36296ft 499kts
29-Jan-17 20:08 38.043286 -102.328296 211 36304ft 507kts
29-Jan-17 20:09 37.972864 -102.464919 273 36312ft 451kts
29-Jan-17 20:10 38.021858 -102.589585 337 36311ft 390kts
29-Jan-17 20:11 38.126572 -102.606227 356 36308ft 382kts
29-Jan-17 20:12 38.224087 -102.658333 319 36311ft 399kts
29-Jan-17 20:13 38.297050 -102.766332 318 35873ft 402kts
29-Jan-17 20:14 38.371083 -102.869359 320 34375ft 391kts
29-Jan-17 20:15 38.444638 -102.971451 320 32878ft 393kts
29-Jan-17 20:16 38.519437 -103.075711 319 31373ft 406kts
29-Jan-17 20:17 38.598088 -103.184790 319 29961ft 408kts
29-Jan-17 20:18 38.673730 -103.291238 318 26195ft 409kts
29-Jan-17 20:19 38.750411 -103.398519 317 25091ft 413kts
29-Jan-17 20:20 38.827419 -103.506826 316 24592ft 409kts
29-Jan-17 20:21 38.902736 -103.613464 317 23575ft 383kts
29-Jan-17 20:22 38.972133 -103.711514 316 22114ft 363kts
29-Jan-17 20:23 39.039688 -103.807895 316 20914ft 360kts
29-Jan-17 20:24 39.105895 -103.902586 316 19719ft 353kts
29-Jan-17 20:25 39.171193 -103.996034 316 18509ft 347kts
29-Jan-17 20:26 39.235808 -104.088877 315 17310ft 343kts
29-Jan-17 20:27 39.278071 -104.198739 292 16131ft 354kts
29-Jan-17 20:28 39.304859 -104.318773 291 14929ft 342kts
29-Jan-17 20:29 39.359244 -104.402239 352 13730ft 325kts
29-Jan-17 20:30 39.441380 -104.429438 343 13082ft 275kts
29-Jan-17 20:31 39.511118 -104.451988 344 12365ft 251kts
29-Jan-17 20:32 39.580584 -104.473392 344 12360ft 259kts
29-Jan-17 20:33 39.650468 -104.494550 345 12355ft 259kts
29-Jan-17 20:34 39.720310 -104.515562 345 12357ft 256kts
29-Jan-17 20:35 39.791987 -104.523557 357 12355ft 258kts
29-Jan-17 20:36 39.863667 -104.522266 356 12312ft 256kts
29-Jan-17 20:37 39.929374 -104.521858 356 11769ft 218kts
29-Jan-17 20:38 39.990611 -104.519923 357 11351ft 225kts
29-Jan-17 20:39 40.053085 -104.517911 356 11347ft 225kts
29-Jan-17 20:40 40.115378 -104.511766 1 11337ft 218kts
29-Jan-17 20:41 40.139273 -104.563119 272 10399ft 210kts
29-Jan-17 20:42 40.136089 -104.638481 278 10369ft 200kts
29-Jan-17 20:43 40.126677 -104.706649 219 10300ft 226kts
29-Jan-17 20:44 40.065055 -104.689380 174 9456ft 226kts
29-Jan-17 20:45 40.004706 -104.685644 184 7824ft 218kts
29-Jan-17 20:46 39.947898 -104.686271 180 6414ft 177kts
29-Jan-17 20:47 39.902605 -104.686792 179 5572ft 155kts
29-Jan-17 20:48 39.869763 -104.687088 188 5439ft 7kts
29-Jan-17 20:49 39.868953 -104.687098 178 5439ft 0kts
29-Jan-17 20:50 39.867246 -104.685023 175 5439ft 17kts
29-Jan-17 20:51 39.864318 -104.682859 95 5439ft 13kts
29-Jan-17 20:52 39.860599 -104.680093 170 5439ft 22kts

Navigation Log

Ident Type
Flight plan parsing failed, navigation log unavailable